Time;durP1;ratioP1;P1;durP2;ratioP2;P2;SDS_P1;SDS_P2;PMS_P1;PMS_P2;Temp;Humidity;BMP_temperature;BMP_pressure;BME280_temperature;BME280_humidity;BME280_pressure;Samples;Min_cycle;Max_cycle;Signal;HPM_P1;HPM_P2
2021/04/17 00:02:12;;;;;;;1999.90;999.90;;;6.30;99.90;;;;;;5096006;28;20065;-94
2021/04/17 00:04:40;;;;;;;1999.90;999.90;;;6.30;99.90;;;;;;5094632;28;20497;-93
2021/04/17 00:07:08;;;;;;;1999.90;999.90;;;6.30;99.90;;;;;;5094981;28;20398;-93
2021/04/17 00:09:36;;;;;;;1999.90;999.90;;;6.30;99.90;;;;;;5097151;28;20055;-93
2021/04/17 00:12:07;;;;;;;1999.90;999.90;;;6.20;99.90;;;;;;5095077;28;20056;-93
2021/04/17 00:14:38;;;;;;;1999.90;999.90;;;6.20;99.90;;;;;;5095014;28;20052;-93
2021/04/17 00:17:14;;;;;;;1999.90;999.90;;;6.20;99.90;;;;;;5096165;28;20051;-93
2021/04/17 00:19:42;;;;;;;1999.90;999.90;;;6.10;99.90;;;;;;5095718;28;20063;-93
2021/04/17 00:22:10;;;;;;;1999.90;999.90;;;6.10;99.90;;;;;;5094682;28;20048;-93
2021/04/17 00:24:37;;;;;;;1999.90;999.90;;;6.00;99.90;;;;;;5095659;28;20040;-93
2021/04/17 00:27:08;;;;;;;1999.90;999.90;;;6.10;99.90;;;;;;5101368;28;20096;-92
2021/04/17 00:29:36;;;;;;;1999.90;999.90;;;6.00;99.90;;;;;;5094757;28;20055;-92
2021/04/17 00:32:06;;;;;;;1999.90;999.90;;;6.00;99.90;;;;;;5092513;28;20093;-92
2021/04/17 00:34:38;;;;;;;1999.90;999.90;;;5.90;99.90;;;;;;5084923;28;20131;-92
2021/04/17 00:37:11;;;;;;;1999.90;999.90;;;5.90;99.90;;;;;;5081611;28;20113;-92
2021/04/17 00:39:38;;;;;;;1999.90;999.90;;;5.90;99.90;;;;;;5088564;28;20102;-92
2021/04/17 00:42:07;;;;;;;1999.90;999.90;;;5.80;99.90;;;;;;5088610;28;20055;-92
2021/04/17 00:44:36;;;;;;;1999.90;999.90;;;5.80;99.90;;;;;;5093698;28;20067;-96
2021/04/17 00:47:05;;;;;;;1999.90;999.90;;;5.80;99.90;;;;;;5098085;28;20052;-94
2021/04/17 00:49:42;;;;;;;1999.90;999.90;;;5.70;99.90;;;;;;5098589;28;20415;-96
2021/04/17 00:52:12;;;;;;;1999.90;999.90;;;5.70;99.90;;;;;;5097982;28;20523;-94
2021/04/17 00:54:40;;;;;;;1999.90;999.90;;;5.70;99.90;;;;;;5098020;28;20051;-94
2021/04/17 00:57:08;;;;;;;1999.90;999.90;;;5.70;99.90;;;;;;5098232;28;20116;-95
2021/04/17 00:59:36;;;;;;;1999.90;999.90;;;5.60;99.90;;;;;;5097895;28;20080;-94
2021/04/17 01:02:03;;;;;;;1999.90;999.90;;;5.70;99.90;;;;;;5089258;28;20109;-90
2021/04/17 01:04:34;;;;;;;1999.90;999.90;;;5.70;99.90;;;;;;5087417;28;20127;-91
2021/04/17 01:07:06;;;;;;;1999.90;999.90;;;5.70;99.90;;;;;;5089825;28;20052;-91
2021/04/17 01:09:40;;;;;;;1999.90;999.90;;;5.70;99.90;;;;;;5084141;28;20075;-91
2021/04/17 01:12:13;;;;;;;1999.90;999.90;;;5.70;99.90;;;;;;5097290;28;20055;-95
2021/04/17 01:14:42;;;;;;;1999.90;999.90;;;5.70;99.90;;;;;;5098908;28;20047;-95
2021/04/17 01:17:11;;;;;;;1999.90;999.90;;;5.70;99.90;;;;;;5099298;28;20083;-95
2021/04/17 01:20:01;;;;;;;1999.90;999.90;;;5.60;99.90;;;;;;5098357;28;20048;-94
2021/04/17 01:22:32;;;;;;;1999.90;999.90;;;5.60;99.90;;;;;;5098559;28;20436;-94
2021/04/17 01:25:07;;;;;;;1999.90;999.90;;;5.60;99.90;;;;;;5097745;28;20044;-92
2021/04/17 01:27:37;;;;;;;1999.90;999.90;;;5.60;99.90;;;;;;5089415;28;20117;-91
2021/04/17 01:30:08;;;;;;;1999.90;999.90;;;5.50;99.90;;;;;;5090177;28;20431;-92
2021/04/17 01:32:37;;;;;;;1999.90;999.90;;;5.50;99.90;;;;;;5088230;28;20090;-92
2021/04/17 01:35:06;;;;;;;1999.90;999.90;;;5.40;99.90;;;;;;5094044;28;20048;-91
2021/04/17 01:38:09;;;;;;;1999.90;999.90;;;5.40;99.90;;;;;;5089008;28;20056;-91
2021/04/17 01:40:37;;;;;;;1999.90;999.90;;;5.40;99.90;;;;;;5091976;28;20047;-91
2021/04/17 01:43:07;;;;;;;1999.90;999.90;;;5.30;99.90;;;;;;5084857;28;20090;-91
2021/04/17 01:45:35;;;;;;;1999.90;999.90;;;5.30;99.90;;;;;;5095094;28;20483;-91
2021/04/17 01:48:04;;;;;;;1999.90;999.90;;;5.20;99.90;;;;;;5097112;28;20075;-91
2021/04/17 01:50:32;;;;;;;1999.90;999.90;;;5.20;99.90;;;;;;5086275;28;20059;-91
2021/04/17 01:53:01;;;;;;;1999.90;999.90;;;5.20;99.90;;;;;;5096171;28;20056;-91
2021/04/17 01:55:32;;;;;;;1999.90;999.90;;;5.10;99.90;;;;;;5095884;28;20497;-92
2021/04/17 01:58:02;;;;;;;1999.90;999.90;;;5.10;99.90;;;;;;5096172;28;20520;-92
2021/04/17 02:00:34;;;;;;;1999.90;999.90;;;5.00;99.90;;;;;;5095563;28;20048;-92
2021/04/17 02:03:01;;;;;;;1999.90;999.90;;;5.00;99.90;;;;;;5094896;28;20070;-91
2021/04/17 02:05:29;;;;;;;1999.90;999.90;;;5.00;99.90;;;;;;5090038;28;20044;-91
2021/04/17 02:07:57;;;;;;;1999.90;999.90;;;5.00;99.90;;;;;;5084229;28;20139;-88
2021/04/17 02:10:25;;;;;;;1999.90;999.90;;;4.90;99.90;;;;;;5084726;28;20135;-89
2021/04/17 02:12:52;;;;;;;1999.90;999.90;;;4.90;99.90;;;;;;5083247;28;20055;-89
2021/04/17 02:15:19;;;;;;;1999.90;999.90;;;4.80;99.90;;;;;;5088883;28;20048;-89
2021/04/17 02:17:55;;;;;;;1999.90;999.90;;;4.80;99.90;;;;;;5084739;28;20150;-89
2021/04/17 02:20:32;;;;;;;1999.90;999.90;;;4.80;99.90;;;;;;5085413;28;20464;-89
2021/04/17 02:23:00;;;;;;;1999.90;999.90;;;4.80;99.90;;;;;;5081576;28;20090;-89
2021/04/17 02:25:28;;;;;;;1999.90;999.90;;;4.80;99.90;;;;;;5082826;28;20138;-89
2021/04/17 02:27:55;;;;;;;1999.90;999.90;;;4.80;99.90;;;;;;5087481;28;20047;-89
2021/04/17 02:30:22;;;;;;;1999.90;999.90;;;4.70;99.90;;;;;;5082701;28;20047;-90
2021/04/17 02:32:50;;;;;;;1999.90;999.90;;;4.70;99.90;;;;;;5085902;28;20048;-89
2021/04/17 02:35:18;;;;;;;1999.90;999.90;;;4.70;99.90;;;;;;5081646;28;20053;-89
2021/04/17 02:37:45;;;;;;;1999.90;999.90;;;4.70;99.90;;;;;;5081758;28;20513;-89
2021/04/17 02:40:12;;;;;;;1999.90;999.90;;;4.70;99.90;;;;;;5083552;28;20135;-90
2021/04/17 02:42:39;;;;;;;1999.90;999.90;;;4.70;99.90;;;;;;5083872;28;20048;-89
2021/04/17 02:45:07;;;;;;;1999.90;999.90;;;4.60;99.90;;;;;;5084675;28;20212;-89
2021/04/17 02:47:34;;;;;;;1999.90;999.90;;;4.60;99.90;;;;;;5085776;28;20074;-89
2021/04/17 02:50:04;;;;;;;1999.90;999.90;;;4.60;99.90;;;;;;5086407;28;20067;-89
2021/04/17 02:52:31;;;;;;;1999.90;999.90;;;4.60;99.90;;;;;;5086095;28;20043;-89
2021/04/17 02:54:58;;;;;;;1999.90;999.90;;;4.60;99.90;;;;;;5085957;28;20056;-90
2021/04/17 02:57:26;;;;;;;1999.90;999.90;;;4.60;99.90;;;;;;5085684;28;20044;-89
2021/04/17 02:59:53;;;;;;;1999.90;999.90;;;4.70;99.90;;;;;;5086093;28;20139;-90
2021/04/17 03:02:20;;;;;;;1999.90;999.90;;;4.60;99.90;;;;;;5081207;28;20113;-89
2021/04/17 03:04:47;;;;;;;1999.90;999.90;;;4.70;99.90;;;;;;5087144;28;20070;-90
2021/04/17 03:07:15;;;;;;;1999.90;999.90;;;4.70;99.90;;;;;;5090143;28;20078;-89
2021/04/17 03:09:42;;;;;;;1999.90;999.90;;;4.70;99.90;;;;;;5080490;28;20153;-94
2021/04/17 03:12:10;;;;;;;1999.90;999.90;;;4.70;99.90;;;;;;5075401;28;20056;-94
2021/04/17 03:14:41;;;;;;;1999.90;999.90;;;4.70;99.90;;;;;;5074907;28;20049;-94
2021/04/17 03:17:11;;;;;;;1999.90;999.90;;;4.70;99.90;;;;;;5075731;28;20049;-94
2021/04/17 03:19:38;;;;;;;1999.90;999.90;;;4.60;99.90;;;;;;5108890;28;20058;-92
2021/04/17 03:22:07;;;;;;;1999.90;999.90;;;4.70;99.90;;;;;;5109307;28;20048;-92
2021/04/17 03:24:35;;;;;;;1999.90;999.90;;;4.70;99.90;;;;;;5095049;28;20055;-92
2021/04/17 03:27:03;;;;;;;1999.90;999.90;;;4.70;99.90;;;;;;5083828;28;20139;-93
2021/04/17 03:29:30;;;;;;;1999.90;999.90;;;4.70;99.90;;;;;;5091941;28;20131;-92
2021/04/17 03:31:58;;;;;;;1999.90;999.90;;;4.70;99.90;;;;;;5094414;28;20047;-92
2021/04/17 03:34:25;;;;;;;1999.90;999.90;;;4.80;99.90;;;;;;5095163;28;20052;-92
2021/04/17 03:36:52;;;;;;;1999.90;999.90;;;4.70;99.90;;;;;;5094424;28;20052;-93
2021/04/17 03:39:24;;;;;;;1999.90;999.90;;;4.80;99.90;;;;;;5094892;28;20097;-92
2021/04/17 03:41:52;;;;;;;1999.90;999.90;;;4.80;99.90;;;;;;5094739;28;20139;-93
2021/04/17 03:44:20;;;;;;;1999.90;999.90;;;4.80;99.90;;;;;;5094138;28;20052;-92
2021/04/17 03:46:47;;;;;;;1999.90;999.90;;;4.80;99.90;;;;;;5094189;28;20063;-92
2021/04/17 03:49:23;;;;;;;1999.90;999.90;;;4.80;99.90;;;;;;5094320;28;20127;-92
2021/04/17 03:51:52;;;;;;;1999.90;999.90;;;4.80;99.90;;;;;;5094388;28;20414;-92
2021/04/17 03:54:20;;;;;;;1999.90;999.90;;;4.80;99.90;;;;;;5094378;28;20055;-92
2021/04/17 03:56:47;;;;;;;1999.90;999.90;;;4.80;99.90;;;;;;5094263;28;20109;-92
2021/04/17 03:59:15;;;;;;;1999.90;999.90;;;4.80;99.90;;;;;;5093794;28;20056;-92
2021/04/17 04:01:43;;;;;;;1999.90;999.90;;;4.80;99.90;;;;;;5091263;28;20131;-92
2021/04/17 04:04:11;;;;;;;1999.90;999.90;;;4.80;99.90;;;;;;5083467;28;20078;-90
2021/04/17 04:06:38;;;;;;;1999.90;999.90;;;4.80;99.90;;;;;;5093616;28;20093;-92
2021/04/17 04:09:07;;;;;;;1999.90;999.90;;;4.80;99.90;;;;;;5094202;28;20052;-92
2021/04/17 04:11:47;;;;;;;1999.90;999.90;;;4.80;99.90;;;;;;5091263;28;20049;-92
2021/04/17 04:14:15;;;;;;;1999.90;999.90;;;4.80;99.90;;;;;;5098512;28;20056;-92
2021/04/17 04:16:42;;;;;;;1999.90;999.90;;;4.80;99.90;;;;;;5098412;28;20052;-92
2021/04/17 04:19:21;;;;;;;1999.90;999.90;;;4.70;99.90;;;;;;5098405;28;20055;-92
2021/04/17 04:21:52;;;;;;;1999.90;999.90;;;4.80;99.90;;;;;;5097972;28;20479;-92
2021/04/17 04:24:20;;;;;;;1999.90;999.90;;;4.70;99.90;;;;;;5081180;28;20050;-92
2021/04/17 04:26:47;;;;;;;1999.90;999.90;;;4.70;99.90;;;;;;5077566;28;20084;-92
2021/04/17 04:29:19;;;;;;;1999.90;999.90;;;4.70;99.90;;;;;;5092900;28;20051;-93
2021/04/17 04:31:50;;;;;;;1999.90;999.90;;;4.70;99.90;;;;;;5097812;28;20490;-92
2021/04/17 04:34:17;;;;;;;1999.90;999.90;;;4.70;99.90;;;;;;5098127;28;20509;-93
2021/04/17 04:36:44;;;;;;;1999.90;999.90;;;4.70;99.90;;;;;;5091045;28;20484;-92
2021/04/17 04:39:12;;;;;;;1999.90;999.90;;;4.70;99.90;;;;;;5080663;28;20461;-90
2021/04/17 04:41:39;;;;;;;1999.90;999.90;;;4.70;99.90;;;;;;5096819;28;20075;-90
2021/04/17 04:44:07;;;;;;;1999.90;999.90;;;4.70;99.90;;;;;;5090025;28;20052;-90
2021/04/17 04:46:36;;;;;;;1999.90;999.90;;;4.70;99.90;;;;;;5094294;28;20471;-90
2021/04/17 04:49:04;;;;;;;1999.90;999.90;;;4.70;99.90;;;;;;5091449;28;20064;-90
2021/04/17 04:51:31;;;;;;;1999.90;999.90;;;4.70;99.90;;;;;;5096198;28;20052;-90
2021/04/17 04:53:59;;;;;;;1999.90;999.90;;;4.70;99.90;;;;;;5096578;28;20051;-90
2021/04/17 04:56:26;;;;;;;1999.90;999.90;;;4.70;99.90;;;;;;5085486;28;20253;-90
2021/04/17 04:58:53;;;;;;;1999.90;999.90;;;4.70;99.90;;;;;;5080116;28;20048;-90
2021/04/17 05:01:23;;;;;;;1999.90;999.90;;;4.70;99.90;;;;;;5089669;28;20124;-90
2021/04/17 05:03:55;;;;;;;1999.90;999.90;;;4.70;99.90;;;;;;5085300;28;20110;-89
2021/04/17 05:06:23;;;;;;;1999.90;999.90;;;4.70;99.90;;;;;;5096906;28;20098;-90
2021/04/17 05:08:50;;;;;;;1999.90;999.90;;;4.70;99.90;;;;;;5084165;28;20044;-89
2021/04/17 05:14:02;;;;;;;1999.90;999.90;;;4.70;99.90;;;;;;5095148;28;20101;-90
2021/04/17 05:16:29;;;;;;;1999.90;999.90;;;4.70;99.90;;;;;;5079897;28;20124;-90
2021/04/17 05:18:57;;;;;;;1999.90;999.90;;;4.70;99.90;;;;;;5090721;28;20044;-90
2021/04/17 05:21:32;;;;;;;1999.90;999.90;;;4.70;99.90;;;;;;5091025;28;20384;-90
2021/04/17 05:24:02;;;;;;;1999.90;999.90;;;4.70;99.90;;;;;;5075753;28;20147;-90
2021/04/17 05:26:29;;;;;;;1999.90;999.90;;;4.70;99.90;;;;;;5083409;28;20468;-89
2021/04/17 05:28:58;;;;;;;1999.90;999.90;;;4.70;99.90;;;;;;5096878;28;20056;-90
2021/04/17 05:31:32;;;;;;;1999.90;999.90;;;4.70;99.90;;;;;;5099384;28;20051;-94
2021/04/17 05:34:05;;;;;;;1999.90;999.90;;;4.70;99.90;;;;;;5099715;28;20060;-94
2021/04/17 05:36:34;;;;;;;1999.90;999.90;;;4.70;99.90;;;;;;5100307;28;20048;-94
2021/04/17 05:39:03;;;;;;;1999.90;999.90;;;4.70;99.90;;;;;;5109346;28;20144;-93
2021/04/17 05:41:37;;;;;;;1999.90;999.90;;;4.80;99.90;;;;;;5111419;28;20075;-92
2021/04/17 05:44:13;;;;;;;1999.90;999.90;;;4.90;99.90;;;;;;5100149;28;20055;-92
2021/04/17 05:46:43;;;;;;;1999.90;999.90;;;4.80;99.90;;;;;;5090790;28;20094;-92
2021/04/17 05:49:48;;;;;;;1999.90;999.90;;;4.90;99.90;;;;;;5099755;28;20063;-93
2021/04/17 05:52:30;;;;;;;1999.90;999.90;;;5.00;99.90;;;;;;5097881;28;20134;-92
2021/04/17 05:54:58;;;;;;;1999.90;999.90;;;5.00;99.90;;;;;;5101120;28;20048;-93
2021/04/17 05:57:39;;;;;;;1999.90;999.90;;;5.10;99.90;;;;;;5099222;28;20131;-93
2021/04/17 06:00:11;;;;;;;1999.90;999.90;;;5.20;99.90;;;;;;5099065;28;20497;-92
2021/04/17 06:02:38;;;;;;;1999.90;999.90;;;5.30;99.90;;;;;;5099398;28;20044;-93
2021/04/17 06:07:56;;;;;;;1999.90;999.90;;;5.40;99.90;;;;;;5101267;28;20059;-93
2021/04/17 06:10:24;;;;;;;1999.90;999.90;;;5.50;99.90;;;;;;5101014;28;20052;-93
2021/04/17 06:12:54;;;;;;;1999.90;999.90;;;5.60;99.90;;;;;;5098843;28;20172;-92
2021/04/17 06:15:43;;;;;;;1999.90;999.90;;;5.70;99.90;;;;;;5100434;28;20048;-93
2021/04/17 06:18:10;;;;;;;1999.90;999.90;;;5.70;99.90;;;;;;5098873;28;20048;-93
2021/04/17 06:20:41;;;;;;;1999.90;999.90;;;5.80;99.90;;;;;;5099873;28;20052;-93
2021/04/17 06:23:29;;;;;;;1999.90;999.90;;;5.90;99.90;;;;;;5099912;28;20109;-93
2021/04/17 06:25:56;;;;;;;1999.90;999.90;;;6.00;99.90;;;;;;5098706;28;20051;-92
2021/04/17 06:28:28;;;;;;;1999.90;999.90;;;6.10;99.90;;;;;;5099895;28;20097;-93
2021/04/17 06:30:56;;;;;;;1999.90;999.90;;;6.10;99.90;;;;;;5107960;28;20044;-92
2021/04/17 06:40:26;;;;;;;1999.90;999.90;;;6.30;99.90;;;;;;5025503;28;20056;-93
2021/04/17 06:42:58;;;;;;;1999.90;999.90;;;6.40;99.90;;;;;;5080751;28;20063;-93
2021/04/17 06:45:26;;;;;;;1999.90;999.90;;;6.50;99.90;;;;;;5079667;28;20049;-93
2021/04/17 06:47:55;;;;;;;1999.90;999.90;;;6.50;99.90;;;;;;5078952;28;20056;-93
2021/04/17 06:50:25;;;;;;;1999.90;999.90;;;6.60;99.90;;;;;;5078026;28;20121;-93
2021/04/17 06:52:55;;;;;;;1999.90;999.90;;;6.60;99.90;;;;;;5076102;28;20090;-93
2021/04/17 06:55:26;;;;;;;1999.90;999.90;;;6.70;99.90;;;;;;5076462;28;20048;-93
2021/04/17 06:57:53;;;;;;;1999.90;999.90;;;6.80;99.90;;;;;;5076940;28;20050;-93
2021/04/17 07:00:23;;;;;;;1999.90;999.90;;;6.80;99.90;;;;;;5075972;28;20064;-93
2021/04/17 07:02:52;;;;;;;1999.90;999.90;;;6.90;99.90;;;;;;5076068;28;20056;-93
2021/04/17 07:05:24;;;;;;;1999.90;999.90;;;7.00;99.90;;;;;;5076319;28;20048;-93
2021/04/17 07:07:54;;;;;;;1999.90;999.90;;;7.10;99.90;;;;;;5075910;28;20058;-92
2021/04/17 07:10:22;;;;;;;1999.90;999.90;;;7.10;99.90;;;;;;5077090;28;20105;-93
2021/04/17 07:12:50;;;;;;;1999.90;999.90;;;7.10;99.90;;;;;;5077795;28;20063;-93
2021/04/17 07:15:18;;;;;;;1999.90;999.90;;;7.10;99.90;;;;;;5075533;28;20048;-93
2021/04/17 07:17:45;;;;;;;1999.90;999.90;;;7.20;99.90;;;;;;5075642;28;20075;-93
2021/04/17 07:20:15;;;;;;;1999.90;999.90;;;7.20;99.90;;;;;;5075420;28;20494;-93
2021/04/17 07:22:43;;;;;;;1999.90;999.90;;;7.30;99.90;;;;;;5074713;28;20101;-93
2021/04/17 07:25:16;;;;;;;1999.90;999.90;;;7.40;99.90;;;;;;5074402;28;20086;-92
2021/04/17 07:27:45;;;;;;;1999.90;999.90;;;7.50;99.90;;;;;;5074669;28;20060;-93
2021/04/17 07:30:32;;;;;;;1999.90;999.90;;;7.50;99.90;;;;;;5075099;28;20052;-93
2021/04/17 07:33:06;;;;;;;1999.90;999.90;;;7.50;99.90;;;;;;5074994;28;20079;-92
2021/04/17 07:35:37;;;;;;;1999.90;999.90;;;7.60;99.90;;;;;;5074746;28;20064;-92
2021/04/17 07:38:10;;;;;;;1999.90;999.90;;;7.60;99.90;;;;;;5074264;28;20495;-93
2021/04/17 07:40:38;;;;;;;1999.90;999.90;;;7.60;99.90;;;;;;5074572;28;20056;-92
2021/04/17 07:43:05;;;;;;;1999.90;999.90;;;7.60;99.90;;;;;;5075305;28;20052;-92
2021/04/17 07:45:36;;;;;;;1999.90;999.90;;;7.60;99.90;;;;;;5074241;28;20052;-92
2021/04/17 07:48:25;;;;;;;1999.90;999.90;;;7.70;99.90;;;;;;5088076;28;20052;-92
2021/04/17 07:50:54;;;;;;;1999.90;999.90;;;7.70;99.90;;;;;;5095483;28;20052;-92
2021/04/17 07:53:30;;;;;;;1999.90;999.90;;;7.80;99.90;;;;;;5095084;28;20052;-92
2021/04/17 07:56:19;;;;;;;1999.90;999.90;;;7.90;99.90;;;;;;5095255;28;20051;-93
2021/04/17 07:58:47;;;;;;;1999.90;999.90;;;7.90;99.90;;;;;;5095051;28;20051;-92
2021/04/17 08:01:18;;;;;;;1999.90;999.90;;;7.90;99.90;;;;;;5096870;28;20109;-93
2021/04/17 08:03:47;;;;;;;1999.90;999.90;;;8.00;99.90;;;;;;5091078;28;20109;-92
2021/04/17 08:06:15;;;;;;;1999.90;999.90;;;8.10;99.90;;;;;;5074451;28;20045;-92
2021/04/17 08:08:44;;;;;;;1999.90;999.90;;;8.10;99.90;;;;;;5074696;28;20102;-92
2021/04/17 08:11:12;;;;;;;1999.90;999.90;;;8.10;99.90;;;;;;5074572;28;20462;-92
2021/04/17 08:13:41;;;;;;;1999.90;999.90;;;8.10;99.90;;;;;;5074363;28;20049;-92
2021/04/17 08:16:09;;;;;;;1999.90;999.90;;;8.20;99.90;;;;;;5075706;28;20048;-93
2021/04/17 08:18:38;;;;;;;1999.90;999.90;;;8.20;99.90;;;;;;5074450;28;20062;-92
2021/04/17 08:21:08;;;;;;;1999.90;999.90;;;8.20;99.90;;;;;;5074738;28;20125;-92
2021/04/17 08:23:38;;;;;;;1999.90;999.90;;;8.20;99.90;;;;;;5075185;28;20053;-92
2021/04/17 08:26:08;;;;;;;1999.90;999.90;;;8.20;99.90;;;;;;5089522;28;20108;-92
2021/04/17 08:28:43;;;;;;;1999.90;999.90;;;8.20;99.90;;;;;;5094501;28;20132;-93
2021/04/17 08:31:20;;;;;;;;;;;8.20;99.90;;;;;;5096254;28;20372;-89
2021/04/17 08:34:16;;;;;;;1999.90;999.90;;;8.30;99.90;;;;;;5095060;28;19958;-90
2021/04/17 08:36:48;;;;;;;1999.90;999.90;;;8.30;99.90;;;;;;5091639;28;20044;-90
2021/04/17 08:39:42;;;;;;;1999.90;999.90;;;8.40;99.90;;;;;;5089479;28;20056;-91
2021/04/17 08:42:15;;;;;;;1999.90;999.90;;;8.40;99.90;;;;;;5074724;28;20068;-95
2021/04/17 08:44:45;;;;;;;1999.90;999.90;;;8.40;99.90;;;;;;5075711;28;20052;-90
2021/04/17 08:47:35;;;;;;;1999.90;999.90;;;8.40;99.90;;;;;;5086717;28;20448;-90
2021/04/17 08:50:26;;;;;;;1999.90;999.90;;;8.50;99.90;;;;;;5087489;28;20062;-90
2021/04/17 08:53:04;;;;;;;1999.90;999.90;;;8.50;99.90;;;;;;5089505;28;20048;-90
2021/04/17 08:55:50;;;;;;;1999.90;999.90;;;8.50;99.90;;;;;;5091896;28;20041;-91
2021/04/17 08:58:19;;;;;;;1999.90;999.90;;;8.50;99.90;;;;;;5099603;28;20051;-90
2021/04/17 09:01:10;;;;;;;1999.90;999.90;;;8.50;99.90;;;;;;5085135;28;20490;-91
2021/04/17 09:03:40;;;;;;;1999.90;999.90;;;8.70;99.90;;;;;;5088961;28;20084;-94
2021/04/17 09:06:31;;;;;;;1999.90;999.90;;;8.80;99.90;;;;;;5077699;28;20048;-94
2021/04/17 09:09:26;;;;;;;1999.90;999.90;;;8.80;99.90;;;;;;5078720;28;20091;-95
2021/04/17 09:12:14;;;;;;;1999.90;999.90;;;8.90;99.90;;;;;;5078815;28;20055;-94
2021/04/17 09:15:04;;;;;;;1999.90;999.90;;;9.00;99.90;;;;;;5080473;28;20055;-95
2021/04/17 09:17:45;;;;;;;1999.90;999.90;;;9.10;99.90;;;;;;5075595;28;20051;-96
2021/04/17 09:20:35;;;;;;;1999.90;999.90;;;9.10;99.90;;;;;;5080726;28;20056;-95
2021/04/17 09:23:07;;;;;;;1999.90;999.90;;;9.20;99.90;;;;;;5080372;28;20066;-95
2021/04/17 09:25:44;;;;;;;1999.90;999.90;;;9.30;99.90;;;;;;5079555;28;20057;-95
2021/04/17 09:28:13;;;;;;;1999.90;999.90;;;9.30;99.90;;;;;;5079503;28;20135;-95
2021/04/17 09:30:41;;;;;;;1999.90;999.90;;;9.40;99.90;;;;;;5080109;28;20055;-96
2021/04/17 09:33:16;;;;;;;1999.90;999.90;;;9.40;99.90;;;;;;5079796;28;20124;-96
2021/04/17 09:35:46;;;;;;;1999.90;999.90;;;9.40;99.90;;;;;;5079948;28;20044;-96
2021/04/17 09:38:16;;;;;;;1999.90;999.90;;;9.40;99.90;;;;;;5081003;28;20060;-96
2021/04/17 09:40:47;;;;;;;1999.90;999.90;;;9.50;99.90;;;;;;5079588;28;20058;-96
2021/04/17 09:43:26;;;;;;;1999.90;999.90;;;9.50;99.90;;;;;;5080868;28;20380;-96
2021/04/17 09:46:00;;;;;;;1999.90;999.90;;;9.40;99.90;;;;;;5079999;28;20044;-95
2021/04/17 09:48:38;;;;;;;1999.90;999.90;;;9.40;99.90;;;;;;5080464;28;20135;-95
2021/04/17 09:51:25;;;;;;;1999.90;999.90;;;9.50;99.90;;;;;;5039873;28;20053;-95
2021/04/17 09:54:01;;;;;;;1999.90;999.90;;;9.60;99.90;;;;;;5041005;28;20144;-95
2021/04/17 09:56:31;;;;;;;1999.90;999.90;;;9.70;99.90;;;;;;5040972;28;20405;-95
2021/04/17 09:59:05;;;;;;;1999.90;999.90;;;9.70;99.60;;;;;;5041933;28;20061;-95
2021/04/17 10:01:33;;;;;;;1999.90;999.90;;;9.80;99.70;;;;;;5041915;28;20057;-96
2021/04/17 10:04:01;;;;;;;1999.90;999.90;;;10.00;99.90;;;;;;5041644;28;20537;-96
2021/04/17 10:06:33;;;;;;;1999.90;999.90;;;10.10;99.40;;;;;;5039342;28;20041;-90
2021/04/17 10:09:20;;;;;;;1999.90;999.90;;;10.10;98.30;;;;;;5050509;28;20045;-90
2021/04/17 10:11:51;;;;;;;1999.90;999.90;;;10.10;98.60;;;;;;5052770;28;20176;-96
2021/04/17 10:14:26;;;;;;;1999.90;999.90;;;10.20;98.50;;;;;;5062509;28;20083;-96
2021/04/17 10:17:01;;;;;;;1999.90;999.90;;;10.30;98.10;;;;;;5062632;28;20049;-96
2021/04/17 10:19:32;;;;;;;1999.90;999.90;;;10.40;98.20;;;;;;5062579;28;20132;-95
2021/04/17 10:22:15;;;;;;;1999.90;999.90;;;10.40;96.70;;;;;;5062931;28;20077;-96
2021/04/17 10:24:44;;;;;;;1999.90;999.90;;;10.50;97.50;;;;;;5057731;28;20069;-93
2021/04/17 10:27:14;;;;;;;1999.90;999.90;;;10.50;96.30;;;;;;5063699;28;20101;-93
2021/04/17 10:29:44;;;;;;;1999.90;999.90;;;10.60;97.00;;;;;;5057536;28;20053;-93
2021/04/17 10:32:14;;;;;;;1999.90;999.90;;;10.60;96.60;;;;;;5055541;28;20056;-93
2021/04/17 10:34:43;;;;;;;1999.90;999.90;;;10.70;96.70;;;;;;5052275;28;20057;-93
2021/04/17 10:37:12;;;;;;;1999.90;999.90;;;10.70;95.80;;;;;;5050453;28;20052;-93
2021/04/17 10:39:58;;;;;;;1999.90;999.90;;;10.70;96.00;;;;;;5055616;28;20063;-94
2021/04/17 10:42:25;;;;;;;1999.90;999.90;;;10.90;95.00;;;;;;5055631;28;20053;-93
2021/04/17 10:44:54;;;;;;;1999.90;999.90;;;10.90;95.40;;;;;;5055530;28;20060;-93
2021/04/17 10:47:22;;;;;;;1999.90;999.90;;;10.90;95.60;;;;;;5056332;28;20051;-93
2021/04/17 10:49:52;;;;;;;1999.90;999.90;;;11.00;95.90;;;;;;5075628;28;20062;-94
2021/04/17 10:52:28;;;;;;;1999.90;999.90;;;11.10;96.20;;;;;;5098635;28;20055;-93
2021/04/17 10:54:57;;;;;;;1999.90;999.90;;;11.10;95.00;;;;;;5102575;28;20078;-94
2021/04/17 10:57:25;;;;;;;1999.90;999.90;;;11.20;94.60;;;;;;5086393;28;20543;-94
2021/04/17 10:59:59;;;;;;;1999.90;999.90;;;11.20;94.70;;;;;;5082943;28;20135;-94
2021/04/17 11:02:29;;;;;;;1999.90;999.90;;;11.20;94.20;;;;;;5099236;28;20052;-93
2021/04/17 11:04:57;;;;;;;1999.90;999.90;;;11.20;94.70;;;;;;5099085;28;20051;-94
2021/04/17 11:07:33;;;;;;;1999.90;999.90;;;11.30;94.50;;;;;;5096603;28;20044;-93
2021/04/17 11:10:03;;;;;;;1999.90;999.90;;;11.40;93.50;;;;;;5096278;28;20051;-93
2021/04/17 11:12:33;;;;;;;1999.90;999.90;;;11.50;93.30;;;;;;5096944;28;20398;-93
2021/04/17 11:15:19;;;;;;;1999.90;999.90;;;11.50;93.90;;;;;;5096589;28;20048;-94
2021/04/17 11:18:13;;;;;;;1999.90;999.90;;;11.70;92.90;;;;;;5095591;28;20054;-94
2021/04/17 11:20:49;;;;;;;1999.90;999.90;;;11.70;92.80;;;;;;5093726;28;20051;-93
2021/04/17 11:23:47;;;;;;;1999.90;999.90;;;11.80;92.10;;;;;;5100815;28;20101;-93
2021/04/17 11:26:18;;;;;;;1999.90;999.90;;;11.80;91.90;;;;;;5084852;28;20080;-93
2021/04/17 11:28:50;;;;;;;1999.90;999.90;;;11.80;91.40;;;;;;5084216;28;20441;-94
2021/04/17 11:31:21;;;;;;;1999.90;999.90;;;11.80;89.90;;;;;;5097014;28;20048;-94
2021/04/17 11:33:52;;;;;;;1999.90;999.90;;;11.80;90.10;;;;;;5095690;28;20139;-94
2021/04/17 11:36:22;;;;;;;1999.90;999.90;;;12.00;90.60;;;;;;5093138;28;20040;-93
2021/04/17 11:39:09;;;;;;;1999.90;999.90;;;12.10;90.20;;;;;;5075528;28;20396;-94
2021/04/17 11:41:55;;;;;;;1999.90;999.90;;;12.00;83.50;;;;;;5074850;28;20079;-93
2021/04/17 11:44:23;;;;;;;1999.90;999.90;;;12.10;82.90;;;;;;5074785;28;20074;-94
2021/04/17 11:46:50;;;;;;;1999.90;999.90;;;12.20;83.00;;;;;;5074706;28;20044;-94
2021/04/17 11:49:18;;;;;;;1999.90;999.90;;;12.20;83.80;;;;;;5075367;28;20565;-94
2021/04/17 11:51:49;;;;;;;1999.90;999.90;;;12.30;83.50;;;;;;5077799;28;20502;-93
2021/04/17 11:54:19;;;;;;;1999.90;999.90;;;12.10;83.00;;;;;;5099167;28;20055;-95
2021/04/17 11:56:49;;;;;;;1999.90;999.90;;;12.10;80.30;;;;;;5100237;28;20505;-96
2021/04/17 11:59:17;;;;;;;1999.90;999.90;;;12.10;78.70;;;;;;5098298;28;20097;-96
2021/04/17 12:01:50;;;;;;;1999.90;999.90;;;12.10;77.50;;;;;;5099577;28;20074;-96
2021/04/17 12:04:18;;;;;;;1999.90;999.90;;;12.10;79.90;;;;;;5096752;28;20079;-96
2021/04/17 12:06:49;;;;;;;1999.90;999.90;;;12.10;81.80;;;;;;5095811;28;20048;-96
2021/04/17 12:09:20;;;;;;;1999.90;999.90;;;12.20;81.60;;;;;;5096445;28;20052;-96
2021/04/17 12:11:48;;;;;;;1999.90;999.90;;;12.20;81.50;;;;;;5096320;28;20052;-95
2021/04/17 12:14:17;;;;;;;1999.90;999.90;;;12.20;83.00;;;;;;5098585;28;20131;-96
2021/04/17 12:16:44;;;;;;;1999.90;999.90;;;12.20;84.30;;;;;;5094906;28;20087;-95
2021/04/17 12:19:12;;;;;;;1999.90;999.90;;;12.30;88.00;;;;;;5096204;28;20070;-96
2021/04/17 12:21:40;;;;;;;1999.90;999.90;;;12.40;84.70;;;;;;5098232;28;20139;-96
2021/04/17 12:24:08;;;;;;;1999.90;999.90;;;12.50;84.70;;;;;;5096159;28;20064;-96
2021/04/17 12:26:40;;;;;;;1999.90;999.90;;;12.60;85.70;;;;;;5095151;28;20089;-96
2021/04/17 12:29:09;;;;;;;1999.90;999.90;;;12.70;85.30;;;;;;5095750;28;20047;-96
2021/04/17 12:31:44;;;;;;;1999.90;999.90;;;12.90;84.80;;;;;;5097695;28;20378;-95
2021/04/17 12:34:14;;;;;;;1999.90;999.90;;;12.90;83.20;;;;;;5097697;28;20048;-96
2021/04/17 12:36:45;;;;;;;1999.90;999.90;;;12.80;84.10;;;;;;5099980;28;20044;-96
2021/04/17 12:39:15;;;;;;;1999.90;999.90;;;12.80;82.00;;;;;;5099111;28;20048;-96
2021/04/17 12:41:46;;;;;;;1999.90;999.90;;;12.80;82.60;;;;;;5099382;28;20052;-96